• Join FlightAware (Why Join?)
  • Login
  • US Flag 
02:03PM EDT


 

Airport Tracker/Info


-or-


 

Live Flight TrackerFlight Track Log ✈ TAM3765 ✈ 05-May-2013 ✈ SBEG / MAO - SBGL / GIG

Flight Track Log - Related Links

Times and Time Zones

All times are in EDT time to prevent confusion due to time zone crossing. See the TAM3765 flight status page for this flight to view local times or setup timezone preferences in your user account.

Time Position Orientation Groundspeed Altitude Reporting Facility
EDT Latitude Longitude Course Direction KTS MPH feet Rate Location/Type
05:08PM -5.0368 -58.4780 142° Southeast  Level Estimated
05:09PM -5.1237 -58.4095 142° Southeast  Level Estimated
05:10PM -5.2105 -58.3410 142° Southeast  Level Estimated
05:11PM -5.2972 -58.2724 142° Southeast  Level Estimated
05:12PM -5.3840 -58.2038 142° Southeast  Level Estimated
05:13PM -5.4708 -58.1352 142° Southeast  Level Estimated
05:14PM -5.5576 -58.0666 142° Southeast  Level Estimated
05:15PM -5.6443 -57.9980 142° Southeast  Level Estimated
05:16PM -5.7311 -57.9293 142° Southeast  Level Estimated
05:17PM -5.8178 -57.8606 142° Southeast  Level Estimated
05:18PM -5.9045 -57.7919 142° Southeast  Level Estimated
05:19PM -5.9913 -57.7232 142° Southeast  Level Estimated
05:20PM -6.0780 -57.6544 142° Southeast  Level Estimated
05:21PM -6.1647 -57.5857 142° Southeast  Level Estimated
05:22PM -6.2514 -57.5169 142° Southeast  Level Estimated
05:23PM -6.3381 -57.4481 142° Southeast  Level Estimated
05:24PM -6.4248 -57.3792 142° Southeast  Level Estimated
05:25PM -6.5114 -57.3103 142° Southeast  Level Estimated
05:26PM -6.5981 -57.2415 142° Southeast  Level Estimated
05:27PM -6.6848 -57.1726 142° Southeast  Level Estimated
05:28PM -6.7714 -57.1036 142° Southeast  Level Estimated
05:29PM -6.8580 -57.0347 142° Southeast  Level Estimated
05:30PM -6.9447 -56.9657 142° Southeast  Level Estimated
05:31PM -7.0313 -56.8967 142° Southeast  Level Estimated
05:32PM -7.1179 -56.8276 142° Southeast  Level Estimated
05:33PM -7.2045 -56.7586 142° Southeast  Level Estimated
05:34PM -7.2910 -56.6895 142° Southeast  Level Estimated
05:35PM -7.3776 -56.6204 142° Southeast  Level Estimated
05:36PM -7.4642 -56.5512 142° Southeast  Level Estimated
05:37PM -7.5507 -56.4821 142° Southeast  Level Estimated
05:38PM -7.6373 -56.4129 142° Southeast  Level Estimated
05:39PM -7.7238 -56.3436 142° Southeast  Level Estimated
05:40PM -7.8103 -56.2744 142° Southeast  Level Estimated
05:41PM -7.8968 -56.2051 142° Southeast  Level Estimated
05:42PM -7.9833 -56.1358 142° Southeast  Level Estimated
05:43PM -8.0698 -56.0664 142° Southeast  Level Estimated
05:44PM -8.1563 -55.9971 142° Southeast  Level Estimated
05:45PM -8.2427 -55.9277 142° Southeast  Level Estimated
05:46PM -8.3292 -55.8582 142° Southeast  Level Estimated
05:47PM -8.4156 -55.7888 142° Southeast  Level Estimated
05:48PM -8.5021 -55.7193 142° Southeast  Level Estimated
05:49PM -8.5885 -55.6498 141° Southeast  Level Estimated
05:50PM -8.6749 -55.5802 141° Southeast  Level Estimated
05:51PM -8.7613 -55.5106 141° Southeast  Level Estimated
05:52PM -8.8476 -55.4410 141° Southeast  Level Estimated
05:53PM -8.9340 -55.3714 141° Southeast  Level Estimated
05:54PM -9.0204 -55.3017 141° Southeast  Level Estimated
05:55PM -9.1067 -55.2319 141° Southeast  Level Estimated
05:56PM -9.1930 -55.1622 141° Southeast  Level Estimated
05:57PM -9.2793 -55.0924 141° Southeast  Level Estimated
05:58PM -9.3656 -55.0226 141° Southeast  Level Estimated
05:59PM -9.4519 -54.9527 141° Southeast  Level Estimated
06:00PM -9.5382 -54.8828 141° Southeast  Level Estimated
06:01PM -9.6244 -54.8129 141° Southeast  Level Estimated
06:02PM -9.7107 -54.7430 141° Southeast  Level Estimated
06:03PM -9.7969 -54.6730 141° Southeast  Level Estimated
06:04PM -9.8831 -54.6029 141° Southeast  Level Estimated
06:05PM -9.9693 -54.5328 141° Southeast  Level Estimated
06:06PM -10.0555 -54.4627 141° Southeast  Level Estimated
06:07PM -10.1417 -54.3926 141° Southeast  Level Estimated
06:08PM -10.2278 -54.3224 141° Southeast  Level Estimated
06:09PM -10.3139 -54.2522 141° Southeast  Level Estimated
06:10PM -10.4001 -54.1819 141° Southeast  Level Estimated
06:11PM -10.4862 -54.1116 141° Southeast  Level Estimated
06:12PM -10.5723 -54.0413 141° Southeast  Level Estimated
06:13PM -10.6583 -53.9709 141° Southeast  Level Estimated
06:14PM -10.7444 -53.9005 141° Southeast  Level Estimated
06:15PM -10.8305 -53.8300 141° Southeast  Level Estimated
06:16PM -10.9165 -53.7595 141° Southeast  Level Estimated
06:17PM -11.0025 -53.6890 141° Southeast  Level Estimated
06:18PM -11.0885 -53.6184 141° Southeast  Level Estimated
06:19PM -11.1745 -53.5478 141° Southeast  Level Estimated
06:20PM -11.2604 -53.4771 141° Southeast  Level Estimated
06:21PM -11.3464 -53.4064 141° Southeast  Level Estimated
06:22PM -11.4323 -53.3357 141° Southeast  Level Estimated
06:23PM -11.5182 -53.2649 141° Southeast  Level Estimated
06:24PM -11.6041 -53.1941 141° Southeast  Level Estimated
06:25PM -11.6900 -53.1232 141° Southeast  Level Estimated
06:26PM -11.7759 -53.0523 141° Southeast  Level Estimated
06:27PM -11.8617 -52.9813 141° Southeast  Level Estimated
06:28PM -11.9475 -52.9103 141° Southeast  Level Estimated
06:29PM -12.0333 -52.8392 141° Southeast  Level Estimated
06:30PM -12.1191 -52.7681 141° Southeast  Level Estimated
06:31PM -12.2049 -52.6970 141° Southeast  Level Estimated
06:32PM -12.2907 -52.6258 141° Southeast  Level Estimated
06:33PM -12.3764 -52.5545 141° Southeast  Level Estimated
06:34PM -12.4621 -52.4832 141° Southeast  Level Estimated
06:35PM -12.5478 -52.4119 141° Southeast  Level Estimated
06:36PM -12.6335 -52.3405 141° Southeast  Level Estimated
06:37PM -12.7191 -52.2691 141° Southeast  Level Estimated
06:38PM -12.8048 -52.1976 141° Southeast  Level Estimated
06:39PM -12.8904 -52.1261 141° Southeast  Level Estimated
06:40PM -12.9760 -52.0545 141° Southeast  Level Estimated
06:41PM -13.0616 -51.9829 141° Southeast  Level Estimated
06:42PM -13.1472 -51.9113 141° Southeast  Level Estimated
06:43PM -13.2327 -51.8395 141° Southeast  Level Estimated
06:44PM -13.3182 -51.7678 141° Southeast  Level Estimated
06:45PM -13.4037 -51.6959 141° Southeast  Level Estimated
06:46PM -13.4892 -51.6241 141° Southeast  Level Estimated
06:47PM -13.5746 -51.5521 141° Southeast  Level Estimated
06:48PM -13.6601 -51.4802 141° Southeast  Level Estimated
06:49PM -13.7455 -51.4081 141° Southeast  Level Estimated
06:50PM -13.8309 -51.3360 141° Southeast  Level Estimated
06:51PM -13.9163 -51.2639 141° Southeast  Level Estimated
06:51PM -14.4900 -49.7870 141° Southeast 463 533 35,000  Level FlightAware
06:51PM -14.5540 -49.7290 139° Southeast 462 532 35,000  Level FlightAware
06:52PM -14.6150 -49.6750 139° Southeast 462 532 35,000  Level FlightAware
06:53PM -14.6700 -49.6250 139° Southeast 462 532 35,000  Level FlightAware
06:54PM -14.7730 -49.5350 140° Southeast 462 532 35,000  Level FlightAware
06:54PM -14.8470 -49.4680 139° Southeast 465 535 35,000  Level FlightAware
06:55PM -14.9110 -49.4110 139° Southeast 465 535 35,000  Level FlightAware
06:56PM -14.9860 -49.3440 139° Southeast 465 535 35,000  Level FlightAware
06:56PM -15.0600 -49.2770 139° Southeast 464 534 35,000  Level FlightAware
06:57PM -15.1250 -49.2180 139° Southeast 465 535 35,000  Level FlightAware
06:58PM -15.2150 -49.1380 139° Southeast 464 534 35,000  Level FlightAware
06:59PM -15.2780 -49.0810 139° Southeast 464 534 35,000  Level FlightAware
07:01PM -15.4477 -48.9563 145° Southeast  Level Estimated
07:02PM -15.5377 -48.8899 145° Southeast  Level Estimated
07:02PM -15.6230 -48.7700 145° Southeast 468 539 35,000  Level FlightAware
07:03PM -15.6800 -48.7190 139° Southeast 468 539 35,000  Level FlightAware
07:04PM -15.7530 -48.6530 139° Southeast 469 540 35,000  Level FlightAware
07:04PM -15.8220 -48.5900 139° Southeast 470 541 35,000  Level FlightAware
07:05PM -15.8940 -48.5250 139° Southeast 471 542 35,000  Level FlightAware
07:06PM -15.9680 -48.4580 139° Southeast 471 542 35,000  Level FlightAware
07:06PM -16.0310 -48.4000 139° Southeast 471 542 35,000  Level FlightAware
07:07PM -16.1060 -48.3320 139° Southeast 470 541 35,000  Level FlightAware
07:08PM -16.1740 -48.2700 139° Southeast 470 541 35,000  Level FlightAware
07:08PM -16.2190 -48.2290 139° Southeast 470 541 35,000  Level FlightAware
07:09PM -16.2850 -48.1690 139° Southeast 471 542 35,000  Level FlightAware
07:09PM -16.3380 -48.1210 139° Southeast 470 541 35,000  Level FlightAware
07:10PM -16.4050 -48.0600 139° Southeast 471 542 35,000 180 Level FlightAware
07:11PM -16.4720 -47.9980 138° Southeast 471 542 35,300 480 Climbing FlightAware
07:12PM -16.5450 -47.9320 139° Southeast 473 544 35,700 540 Climbing FlightAware
07:12PM -16.5760 -47.9030 138° Southeast 473 544 35,900 720 Climbing FlightAware
07:13PM -16.6600 -47.8260 139° Southeast 469 540 36,600 720 Climbing FlightAware
07:13PM -16.7250 -47.7660 139° Southeast 469 540 37,000 300 Climbing FlightAware
07:14PM -16.7890 -47.7080 139° Southeast 469 540 37,000  Level FlightAware
07:15PM -16.8790 -47.6230 138° Southeast 469 540 37,000  Level FlightAware
07:16PM -16.9500 -47.5590 139° Southeast 469 540 37,000  Level FlightAware
07:16PM -17.0160 -47.4970 138° Southeast 469 540 37,000  Level FlightAware
07:17PM -17.0530 -47.4640 140° Southeast 37,000  Level FlightAware
07:18PM -17.1000 -47.4210 139° Southeast 471 542 37,000  Level FlightAware
07:18PM -17.1680 -47.3570 138° Southeast 471 542 37,000  Level FlightAware
07:19PM -17.2230 -47.3050 138° Southeast 471 542 37,000  Level FlightAware
07:20PM -17.2780 -47.2530 138° Southeast 471 542 37,000  Level FlightAware
07:20PM -17.3330 -47.2020 138° Southeast 471 542 37,000  Level FlightAware
07:21PM -17.4020 -47.1370 138° Southeast 471 542 37,000  Level FlightAware
07:22PM -17.4570 -47.0850 138° Southeast 471 542 37,000  Level FlightAware
07:23PM -17.6260 -46.9340 140° Southeast 471 542 37,000  Level FlightAware
07:23PM -17.7090 -46.8560 138° Southeast 471 542 37,000  Level FlightAware
07:24PM -17.7680 -46.8010 138° Southeast 472 543 37,000  Level FlightAware
07:25PM -17.8480 -46.7270 139° Southeast 473 544 37,000  Level FlightAware
07:26PM -17.9210 -46.6580 138° Southeast 473 544 37,000  Level FlightAware
07:26PM -17.9860 -46.5980 139° Southeast 473 544 37,000  Level FlightAware
07:27PM -18.0500 -46.5380 138° Southeast 473 544 37,000  Level FlightAware
07:28PM -18.1160 -46.4760 138° Southeast 475 547 37,000  Level FlightAware
07:29PM -18.2320 -46.3670 138° Southeast 476 548 37,000  Level FlightAware
07:29PM -18.3050 -46.2980 138° Southeast 477 549 37,000  Level FlightAware
07:30PM -18.3810 -46.2270 138° Southeast 477 549 37,000  Level FlightAware
07:31PM -18.4360 -46.1750 138° Southeast 476 548 37,000  Level FlightAware
07:32PM -18.5110 -46.1040 138° Southeast 477 549 37,000  Level FlightAware
07:32PM -18.6020 -46.0180 138° Southeast 477 549 37,000  Level FlightAware
07:33PM -18.6580 -45.9650 138° Southeast 477 549 37,000  Level FlightAware
07:34PM -18.7350 -45.8920 138° Southeast 477 549 37,000  Level FlightAware
07:35PM -18.8080 -45.8230 138° Southeast 477 549 37,000  Level FlightAware
07:35PM -18.8760 -45.7660 142° Southeast 476 548 37,000  Level FlightAware
07:36PM -18.9510 -45.7190 149° Southeast 475 547 37,000  Level FlightAware
07:37PM -19.0680 -45.6500 151° Southeast 472 543 37,000  Level FlightAware
07:38PM -19.1890 -45.5970 158° South 469 540 37,000  Level FlightAware
07:39PM -19.2860 -45.5530 157° South 470 541 37,000  Level FlightAware
07:39PM -19.3640 -45.5180 157° South 471 542 37,000  Level FlightAware
07:40PM -19.4460 -45.4810 157° South 474 545 37,000  Level FlightAware
07:41PM -19.5350 -45.4410 157° South 475 547 37,000  Level FlightAware
07:41PM -19.6160 -45.4040 157° South 475 547 37,000  Level FlightAware
07:42PM -19.7080 -45.3630 157° South 476 548 37,000  Level FlightAware
07:43PM -19.7880 -45.3260 156° South 476 548 37,000  Level FlightAware
07:44PM -19.8690 -45.2900 157° South 477 549 37,000  Level FlightAware
07:44PM -19.9610 -45.2480 157° South 477 549 37,000  Level FlightAware
07:45PM -20.0440 -45.2110 157° South 477 549 37,000  Level FlightAware
07:46PM -20.1250 -45.1730 156° South 475 547 37,000  Level FlightAware
07:46PM -20.2150 -45.1320 157° South 475 547 37,000  Level FlightAware
07:47PM -20.2960 -45.0950 157° South 475 547 37,000  Level FlightAware
07:48PM -20.3890 -45.0530 157° South 477 549 37,000  Level FlightAware
07:48PM -20.4680 -45.0170 157° South 478 550 37,000  Level FlightAware
07:49PM -20.5410 -44.9830 156° South 478 550 37,000  Level FlightAware
07:50PM -20.6330 -44.9420 157° South 479 551 37,000  Level FlightAware
07:50PM -20.7130 -44.9050 157° South 479 551 37,000  Level FlightAware
07:51PM -20.7950 -44.8670 157° South 481 554 37,000  Level FlightAware
07:52PM -20.8860 -44.8250 157° South 482 555 37,000  Level FlightAware
07:53PM -21.0000 -44.7720 157° South 484 557 37,000  Level FlightAware
07:53PM -21.0680 -44.7310 151° Southeast 491 565 37,000 -180 Level FlightAware
07:54PM -21.1410 -44.6530 135° Southeast 495 570 36,800 -1,200 Descending FlightAware
07:55PM -21.1850 -44.5670 119° Southeast 492 566 35,300 -2,400 Descending FlightAware
07:55PM -21.2070 -44.4740 104° East 487 560 33,600 -2,580 Descending FlightAware
07:56PM -21.2470 -44.3620 111° Southeast 485 558 31,500 -2,340 Descending FlightAware
07:57PM -21.2970 -44.2830 124° Southeast 474 545 30,100 -2,160 Descending FlightAware
07:58PM -21.3660 -44.2110 136° Southeast 462 532 28,500 -2,220 Descending FlightAware
07:58PM -21.4370 -44.1620 147° Southeast 452 520 27,000 -2,280 Descending FlightAware
07:59PM -21.5090 -44.1150 149° Southeast 446 513 25,500 -1,920 Descending FlightAware
08:00PM -21.5830 -44.0670 149° Southeast 430 495 24,300 -2,040 Descending FlightAware
08:00PM -21.6400 -44.0300 149° Southeast 432 497 22,800 -1,140 Descending FlightAware
08:01PM -21.7110 -43.9820 148° Southeast 432 497 22,800  Level FlightAware
08:02PM -21.7680 -43.9440 148° Southeast 432 497 22,800  Level FlightAware
08:03PM -21.8400 -43.8950 148° Southeast 432 497 22,800  Level FlightAware
08:03PM -21.8980 -43.8560 148° Southeast 432 497 22,800  Level FlightAware
08:04PM -21.9560 -43.8180 149° Southeast 432 497 22,800 -2,880 Level FlightAware
08:06PM -22.1530 -43.6960 150° Southeast 14,200 -3,600 Descending FlightAware
08:07PM -22.2140 -43.6560 149° Southeast 335 386 13,600 -960 Descending FlightAware
08:07PM -22.2660 -43.6220 149° Southeast 320 368 12,900 -960 Descending FlightAware
08:08PM -22.3200 -43.5870 149° Southeast 305 351 12,300 -900 Descending FlightAware
08:09PM -22.3670 -43.5560 149° Southeast 291 335 11,700 -1,140 Descending FlightAware
08:10PM -22.4400 -43.5560 180° South 253 291 10,500 -1,560 Descending FlightAware
08:11PM -22.4950 -43.5740 197° South 263 303 8,800 -1,200 Descending FlightAware
08:11PM -22.5230 -43.5830 197° South 263 303 8,800  Level FlightAware
08:11PM -22.5530 -43.5920 195° South 263 303 8,800 -1,320 Level FlightAware
08:12PM -22.6180 -43.6150 198° South 251 289 7,100 -1,320 Descending FlightAware
08:15PM -22.7373 -43.3833 119° Southeast  Level Estimated
08:15PM -22.7100 -43.4960 119° Southeast 205 236 4,600  Level FlightAware
08:15PM -22.7190 -43.4670 109° East 197 227 4,300 -720 Descending FlightAware
08:16PM -22.7210 -43.4470 96° East 200 230 4,000 -1,200 Descending FlightAware
08:16PM -22.7220 -43.4270 93° East 198 228 3,500 -1,320 Descending FlightAware
08:16PM -22.7250 -43.4000 97° East 193 222 2,900 -1,080 Descending FlightAware
08:17PM -22.7280 -43.3930 115° Southeast 193 222 2,800 -840 Descending FlightAware
08:17PM -22.7480 -43.3610 124° Southeast 159 183 2,200 -900 Descending FlightAware
08:18PM -22.7590 -43.3440 125° Southeast 146 168 1,800 -840 Descending FlightAware
08:18PM -22.7660 -43.3330 125° Southeast 143 165 1,600 -840 Descending FlightAware
08:18PM -22.7770 -43.3170 127° Southeast 145 167 1,200 -780 Descending FlightAware
08:19PM -22.7880 -43.3010 127° Southeast 143 165 900 -780 Descending FlightAware
08:19PM -22.7930 -43.2930 124° Southeast 143 165 700 -420 Descending FlightAware
08:20PM -22.8100 -43.2680 126° Southeast 144 166 500 -300 Descending FlightAware
08:22PM -22.8089 -43.2436 87° East  Level Estimated
08:23PM -22.8089 -43.2436 137° Southeast  Level Estimated
08:24PM -22.8089 -43.2436 137° Southeast  Level Estimated
08:25PM -22.8089 -43.2436 137° Southeast  Level Estimated
08:26PM -22.8089 -43.2436 137° Southeast  Level Estimated
08:27PM -22.8089 -43.2436 137° Southeast  Level Estimated
08:28PM -22.8089 -43.2436 137° Southeast  Level Estimated
08:29PM -22.8089 -43.2436 137° Southeast  Level Estimated
08:30PM -22.8089 -43.2436 137° Southeast  Level Estimated
08:31PM -22.8089 -43.2436 137° Southeast  Level Estimated
08:32PM -22.8089 -43.2436 137° Southeast  Level Estimated
08:33PM -22.8089 -43.2436 137° Southeast  Level Estimated
08:34PM -22.8089 -43.2436 137° Southeast  Level Estimated
08:35PM -22.8089 -43.2436 137° Southeast  Level Estimated
08:36PM -22.8089 -43.2436 137° Southeast  Level Estimated
08:37PM -22.8089 -43.2436 137° Southeast  Level Estimated
08:38PM -22.8089 -43.2436 137° Southeast  Level Estimated
08:39PM -22.8089 -43.2436 137° Southeast  Level Estimated
08:40PM -22.8089 -43.2436 137° Southeast  Level Estimated
08:41PM -22.8089 -43.2436 137° Southeast  Level Estimated
08:42PM -22.8089 -43.2436 137° Southeast  Level Estimated
08:43PM -22.8089 -43.2436 137° Southeast  Level Estimated
08:44PM -22.8089 -43.2436 137° Southeast  Level Estimated
08:45PM -22.8089 -43.2436 137° Southeast  Level Estimated
08:46PM -22.8089 -43.2436 137° Southeast  Level Estimated
08:47PM -22.8089 -43.2436 137° Southeast  Level Estimated
08:48PM -22.8089 -43.2436 137° Southeast  Level Estimated
08:49PM -22.8089 -43.2436 137° Southeast  Level Estimated
08:50PM -22.8089 -43.2436 137° Southeast  Level Estimated
08:51PM -22.8089 -43.2436 137° Southeast  Level Estimated
08:52PM -22.8089 -43.2436 137° Southeast  Level Estimated
08:53PM -22.8089 -43.2436 137° Southeast  Level Estimated